sensor_id;sensor_type;location;lat;lon;timestamp;P1;durP1;ratioP1;P2;durP2;ratioP2
3971;SDS011;2000;47.572;14.202;2023-02-15T00:01:51;5.67;;;2.93;;
3971;SDS011;2000;47.572;14.202;2023-02-15T00:04:19;4.27;;;2.13;;
3971;SDS011;2000;47.572;14.202;2023-02-15T00:06:48;2.70;;;1.90;;
3971;SDS011;2000;47.572;14.202;2023-02-15T00:09:15;6.43;;;2.30;;
3971;SDS011;2000;47.572;14.202;2023-02-15T00:11:42;4.70;;;2.17;;
3971;SDS011;2000;47.572;14.202;2023-02-15T00:14:12;3.60;;;2.43;;
3971;SDS011;2000;47.572;14.202;2023-02-15T00:16:41;5.43;;;2.50;;
3971;SDS011;2000;47.572;14.202;2023-02-15T00:19:09;4.73;;;2.00;;
3971;SDS011;2000;47.572;14.202;2023-02-15T00:21:37;5.03;;;2.53;;
3971;SDS011;2000;47.572;14.202;2023-02-15T00:24:05;8.57;;;2.50;;
3971;SDS011;2000;47.572;14.202;2023-02-15T00:26:33;6.40;;;2.53;;
3971;SDS011;2000;47.572;14.202;2023-02-15T00:29:00;2.77;;;1.53;;
3971;SDS011;2000;47.572;14.202;2023-02-15T00:31:28;5.20;;;2.73;;
3971;SDS011;2000;47.572;14.202;2023-02-15T00:36:30;4.40;;;1.80;;
3971;SDS011;2000;47.572;14.202;2023-02-15T00:38:56;3.27;;;2.13;;
3971;SDS011;2000;47.572;14.202;2023-02-15T00:41:23;5.00;;;2.27;;
3971;SDS011;2000;47.572;14.202;2023-02-15T00:43:50;4.37;;;2.67;;
3971;SDS011;2000;47.572;14.202;2023-02-15T00:46:16;4.83;;;3.67;;
3971;SDS011;2000;47.572;14.202;2023-02-15T00:48:43;5.50;;;2.20;;
3971;SDS011;2000;47.572;14.202;2023-02-15T00:51:10;3.47;;;2.70;;
3971;SDS011;2000;47.572;14.202;2023-02-15T00:53:36;3.50;;;2.07;;
3971;SDS011;2000;47.572;14.202;2023-02-15T00:56:03;7.57;;;2.50;;
3971;SDS011;2000;47.572;14.202;2023-02-15T00:58:30;2.27;;;2.00;;
3971;SDS011;2000;47.572;14.202;2023-02-15T01:01:02;3.20;;;1.87;;
3971;SDS011;2000;47.572;14.202;2023-02-15T01:03:33;4.70;;;1.63;;
3971;SDS011;2000;47.572;14.202;2023-02-15T01:06:00;1.83;;;1.27;;
3971;SDS011;2000;47.572;14.202;2023-02-15T01:08:28;2.87;;;1.33;;
3971;SDS011;2000;47.572;14.202;2023-02-15T01:10:54;10.00;;;2.10;;
3971;SDS011;2000;47.572;14.202;2023-02-15T01:13:21;6.33;;;2.23;;
3971;SDS011;2000;47.572;14.202;2023-02-15T01:15:54;4.00;;;2.30;;
3971;SDS011;2000;47.572;14.202;2023-02-15T01:18:22;2.70;;;1.70;;
3971;SDS011;2000;47.572;14.202;2023-02-15T01:20:48;3.20;;;2.07;;
3971;SDS011;2000;47.572;14.202;2023-02-15T01:23:15;4.50;;;1.67;;
3971;SDS011;2000;47.572;14.202;2023-02-15T01:25:42;5.63;;;2.93;;
3971;SDS011;2000;47.572;14.202;2023-02-15T01:28:09;4.13;;;1.40;;
3971;SDS011;2000;47.572;14.202;2023-02-15T01:30:35;1.70;;;1.10;;
3971;SDS011;2000;47.572;14.202;2023-02-15T01:33:02;1.93;;;1.83;;
3971;SDS011;2000;47.572;14.202;2023-02-15T01:35:29;7.10;;;2.83;;
3971;SDS011;2000;47.572;14.202;2023-02-15T01:37:56;4.57;;;2.10;;
3971;SDS011;2000;47.572;14.202;2023-02-15T01:40:23;4.93;;;1.57;;
3971;SDS011;2000;47.572;14.202;2023-02-15T01:42:51;3.67;;;2.17;;
3971;SDS011;2000;47.572;14.202;2023-02-15T01:47:54;4.87;;;2.20;;
3971;SDS011;2000;47.572;14.202;2023-02-15T01:50:34;2.63;;;1.97;;
3971;SDS011;2000;47.572;14.202;2023-02-15T01:55:32;3.23;;;1.70;;
3971;SDS011;2000;47.572;14.202;2023-02-15T01:58:00;5.57;;;1.87;;
3971;SDS011;2000;47.572;14.202;2023-02-15T02:00:28;6.47;;;2.93;;
3971;SDS011;2000;47.572;14.202;2023-02-15T02:02:55;3.20;;;2.63;;
3971;SDS011;2000;47.572;14.202;2023-02-15T02:05:23;3.33;;;2.10;;
3971;SDS011;2000;47.572;14.202;2023-02-15T02:07:50;2.20;;;1.40;;
3971;SDS011;2000;47.572;14.202;2023-02-15T02:10:20;4.63;;;2.17;;
3971;SDS011;2000;47.572;14.202;2023-02-15T02:12:49;4.73;;;2.47;;
3971;SDS011;2000;47.572;14.202;2023-02-15T02:15:20;4.93;;;2.13;;
3971;SDS011;2000;47.572;14.202;2023-02-15T02:17:54;2.63;;;1.70;;
3971;SDS011;2000;47.572;14.202;2023-02-15T02:23:27;3.60;;;2.00;;
3971;SDS011;2000;47.572;14.202;2023-02-15T02:34:46;5.83;;;3.23;;
3971;SDS011;2000;47.572;14.202;2023-02-15T02:37:37;7.70;;;3.20;;
3971;SDS011;2000;47.572;14.202;2023-02-15T02:40:15;6.03;;;2.53;;
3971;SDS011;2000;47.572;14.202;2023-02-15T02:42:49;4.37;;;1.97;;
3971;SDS011;2000;47.572;14.202;2023-02-15T02:45:26;3.10;;;1.93;;
3971;SDS011;2000;47.572;14.202;2023-02-15T02:48:13;3.53;;;1.87;;
3971;SDS011;2000;47.572;14.202;2023-02-15T02:50:45;4.37;;;2.10;;
3971;SDS011;2000;47.572;14.202;2023-02-15T02:53:12;3.47;;;1.90;;
3971;SDS011;2000;47.572;14.202;2023-02-15T02:55:46;2.30;;;1.33;;
3971;SDS011;2000;47.572;14.202;2023-02-15T03:01:31;3.70;;;1.67;;
3971;SDS011;2000;47.572;14.202;2023-02-15T03:04:05;3.80;;;1.53;;
3971;SDS011;2000;47.572;14.202;2023-02-15T03:09:18;1.53;;;1.43;;
3971;SDS011;2000;47.572;14.202;2023-02-15T03:11:49;2.13;;;1.60;;
3971;SDS011;2000;47.572;14.202;2023-02-15T03:14:17;2.30;;;1.70;;
3971;SDS011;2000;47.572;14.202;2023-02-15T03:16:46;2.63;;;1.80;;
3971;SDS011;2000;47.572;14.202;2023-02-15T03:19:15;3.13;;;2.33;;
3971;SDS011;2000;47.572;14.202;2023-02-15T03:21:49;3.83;;;2.17;;
3971;SDS011;2000;47.572;14.202;2023-02-15T03:24:36;3.47;;;2.03;;
3971;SDS011;2000;47.572;14.202;2023-02-15T03:27:31;4.33;;;2.70;;
3971;SDS011;2000;47.572;14.202;2023-02-15T03:30:02;3.50;;;2.30;;
3971;SDS011;2000;47.572;14.202;2023-02-15T03:32:29;7.07;;;2.77;;
3971;SDS011;2000;47.572;14.202;2023-02-15T03:34:57;4.87;;;2.03;;
3971;SDS011;2000;47.572;14.202;2023-02-15T03:39:59;5.10;;;3.10;;
3971;SDS011;2000;47.572;14.202;2023-02-15T03:42:53;5.10;;;2.00;;
3971;SDS011;2000;47.572;14.202;2023-02-15T03:45:29;3.80;;;2.10;;
3971;SDS011;2000;47.572;14.202;2023-02-15T03:47:57;8.00;;;3.07;;
3971;SDS011;2000;47.572;14.202;2023-02-15T03:50:31;7.00;;;3.70;;
3971;SDS011;2000;47.572;14.202;2023-02-15T03:53:18;6.60;;;3.30;;
3971;SDS011;2000;47.572;14.202;2023-02-15T03:55:48;2.33;;;1.93;;
3971;SDS011;2000;47.572;14.202;2023-02-15T03:58:15;9.03;;;3.10;;
3971;SDS011;2000;47.572;14.202;2023-02-15T04:01:05;3.30;;;3.00;;
3971;SDS011;2000;47.572;14.202;2023-02-15T04:04:07;3.80;;;1.70;;
3971;SDS011;2000;47.572;14.202;2023-02-15T04:06:38;4.07;;;1.90;;
3971;SDS011;2000;47.572;14.202;2023-02-15T04:09:05;2.10;;;1.77;;
3971;SDS011;2000;47.572;14.202;2023-02-15T04:11:50;5.67;;;2.20;;
3971;SDS011;2000;47.572;14.202;2023-02-15T04:14:17;2.43;;;1.57;;
3971;SDS011;2000;47.572;14.202;2023-02-15T04:17:05;2.03;;;1.67;;
3971;SDS011;2000;47.572;14.202;2023-02-15T04:19:34;5.33;;;1.73;;
3971;SDS011;2000;47.572;14.202;2023-02-15T04:22:20;4.30;;;2.67;;
3971;SDS011;2000;47.572;14.202;2023-02-15T04:25:05;2.67;;;2.40;;
3971;SDS011;2000;47.572;14.202;2023-02-15T04:27:48;3.30;;;2.20;;
3971;SDS011;2000;47.572;14.202;2023-02-15T04:30:17;5.90;;;2.27;;
3971;SDS011;2000;47.572;14.202;2023-02-15T04:32:45;6.03;;;2.40;;
3971;SDS011;2000;47.572;14.202;2023-02-15T04:35:12;3.57;;;2.00;;
3971;SDS011;2000;47.572;14.202;2023-02-15T04:37:40;2.40;;;1.90;;
3971;SDS011;2000;47.572;14.202;2023-02-15T04:40:08;4.67;;;2.37;;
3971;SDS011;2000;47.572;14.202;2023-02-15T04:42:37;4.60;;;2.50;;
3971;SDS011;2000;47.572;14.202;2023-02-15T04:45:04;9.13;;;2.50;;
3971;SDS011;2000;47.572;14.202;2023-02-15T04:47:31;7.50;;;2.63;;
3971;SDS011;2000;47.572;14.202;2023-02-15T04:49:58;2.67;;;2.43;;
3971;SDS011;2000;47.572;14.202;2023-02-15T04:52:25;11.57;;;2.03;;
3971;SDS011;2000;47.572;14.202;2023-02-15T04:54:52;2.33;;;1.70;;
3971;SDS011;2000;47.572;14.202;2023-02-15T04:57:18;5.70;;;2.20;;
3971;SDS011;2000;47.572;14.202;2023-02-15T04:59:45;6.43;;;2.27;;
3971;SDS011;2000;47.572;14.202;2023-02-15T05:02:12;4.20;;;2.70;;
3971;SDS011;2000;47.572;14.202;2023-02-15T05:04:39;5.10;;;1.97;;
3971;SDS011;2000;47.572;14.202;2023-02-15T05:07:06;5.23;;;2.70;;
3971;SDS011;2000;47.572;14.202;2023-02-15T05:09:32;2.50;;;2.03;;
3971;SDS011;2000;47.572;14.202;2023-02-15T05:11:59;13.93;;;2.77;;
3971;SDS011;2000;47.572;14.202;2023-02-15T05:14:26;2.27;;;1.50;;
3971;SDS011;2000;47.572;14.202;2023-02-15T05:16:53;1.90;;;1.80;;
3971;SDS011;2000;47.572;14.202;2023-02-15T05:19:20;2.63;;;1.63;;
3971;SDS011;2000;47.572;14.202;2023-02-15T05:21:47;2.27;;;1.90;;
3971;SDS011;2000;47.572;14.202;2023-02-15T05:24:13;4.13;;;2.30;;
3971;SDS011;2000;47.572;14.202;2023-02-15T05:26:59;3.10;;;1.30;;
3971;SDS011;2000;47.572;14.202;2023-02-15T05:29:44;1.77;;;1.10;;
3971;SDS011;2000;47.572;14.202;2023-02-15T05:32:14;4.50;;;1.73;;
3971;SDS011;2000;47.572;14.202;2023-02-15T05:34:42;2.97;;;1.70;;
3971;SDS011;2000;47.572;14.202;2023-02-15T05:37:08;2.33;;;2.13;;
3971;SDS011;2000;47.572;14.202;2023-02-15T05:39:35;8.47;;;3.07;;
3971;SDS011;2000;47.572;14.202;2023-02-15T05:42:02;2.80;;;2.53;;
3971;SDS011;2000;47.572;14.202;2023-02-15T05:44:28;7.07;;;3.10;;
3971;SDS011;2000;47.572;14.202;2023-02-15T05:46:55;7.27;;;3.60;;
3971;SDS011;2000;47.572;14.202;2023-02-15T05:49:22;7.40;;;3.43;;
3971;SDS011;2000;47.572;14.202;2023-02-15T05:51:49;4.73;;;2.70;;
3971;SDS011;2000;47.572;14.202;2023-02-15T05:54:15;5.43;;;2.73;;
3971;SDS011;2000;47.572;14.202;2023-02-15T05:56:42;4.00;;;3.00;;
3971;SDS011;2000;47.572;14.202;2023-02-15T05:59:09;5.97;;;3.97;;
3971;SDS011;2000;47.572;14.202;2023-02-15T06:01:35;5.43;;;3.83;;
3971;SDS011;2000;47.572;14.202;2023-02-15T06:04:02;8.53;;;4.57;;
3971;SDS011;2000;47.572;14.202;2023-02-15T06:06:29;7.60;;;4.33;;
3971;SDS011;2000;47.572;14.202;2023-02-15T06:08:56;6.63;;;3.50;;
3971;SDS011;2000;47.572;14.202;2023-02-15T06:11:23;18.27;;;3.97;;
3971;SDS011;2000;47.572;14.202;2023-02-15T06:13:49;10.53;;;3.63;;
3971;SDS011;2000;47.572;14.202;2023-02-15T06:16:16;4.30;;;3.20;;
3971;SDS011;2000;47.572;14.202;2023-02-15T06:18:43;5.87;;;3.67;;
3971;SDS011;2000;47.572;14.202;2023-02-15T06:21:10;7.20;;;3.90;;
3971;SDS011;2000;47.572;14.202;2023-02-15T06:23:37;22.90;;;3.70;;
3971;SDS011;2000;47.572;14.202;2023-02-15T06:26:04;31.97;;;4.43;;
3971;SDS011;2000;47.572;14.202;2023-02-15T06:28:31;13.03;;;3.97;;
3971;SDS011;2000;47.572;14.202;2023-02-15T06:30:57;6.77;;;3.40;;
3971;SDS011;2000;47.572;14.202;2023-02-15T06:33:24;17.97;;;3.40;;
3971;SDS011;2000;47.572;14.202;2023-02-15T06:35:51;5.93;;;2.97;;
3971;SDS011;2000;47.572;14.202;2023-02-15T06:38:18;7.17;;;3.03;;
3971;SDS011;2000;47.572;14.202;2023-02-15T06:40:45;8.40;;;3.10;;
3971;SDS011;2000;47.572;14.202;2023-02-15T06:43:11;3.23;;;2.87;;
3971;SDS011;2000;47.572;14.202;2023-02-15T06:45:38;4.07;;;2.83;;
3971;SDS011;2000;47.572;14.202;2023-02-15T06:48:05;3.07;;;2.67;;
3971;SDS011;2000;47.572;14.202;2023-02-15T06:50:34;16.23;;;3.23;;
3971;SDS011;2000;47.572;14.202;2023-02-15T06:53:01;4.10;;;2.13;;
3971;SDS011;2000;47.572;14.202;2023-02-15T06:55:28;3.67;;;2.47;;
3971;SDS011;2000;47.572;14.202;2023-02-15T06:57:54;4.40;;;2.20;;
3971;SDS011;2000;47.572;14.202;2023-02-15T07:00:21;3.87;;;2.33;;
3971;SDS011;2000;47.572;14.202;2023-02-15T07:02:53;8.90;;;3.13;;
3971;SDS011;2000;47.572;14.202;2023-02-15T07:05:22;6.90;;;2.73;;
3971;SDS011;2000;47.572;14.202;2023-02-15T07:07:49;8.37;;;2.13;;
3971;SDS011;2000;47.572;14.202;2023-02-15T07:10:16;5.70;;;2.57;;
3971;SDS011;2000;47.572;14.202;2023-02-15T07:12:43;6.90;;;3.30;;
3971;SDS011;2000;47.572;14.202;2023-02-15T07:15:12;5.17;;;3.00;;
3971;SDS011;2000;47.572;14.202;2023-02-15T07:17:41;6.47;;;3.07;;
3971;SDS011;2000;47.572;14.202;2023-02-15T07:22:37;3.20;;;2.67;;
3971;SDS011;2000;47.572;14.202;2023-02-15T07:25:05;9.63;;;3.27;;
3971;SDS011;2000;47.572;14.202;2023-02-15T07:27:32;6.60;;;2.73;;
3971;SDS011;2000;47.572;14.202;2023-02-15T07:30:00;4.50;;;2.40;;
3971;SDS011;2000;47.572;14.202;2023-02-15T07:32:30;18.30;;;4.20;;
3971;SDS011;2000;47.572;14.202;2023-02-15T07:34:58;8.23;;;5.00;;
3971;SDS011;2000;47.572;14.202;2023-02-15T07:37:26;6.17;;;3.50;;
3971;SDS011;2000;47.572;14.202;2023-02-15T07:39:53;9.97;;;5.10;;
3971;SDS011;2000;47.572;14.202;2023-02-15T07:42:19;26.90;;;14.23;;
3971;SDS011;2000;47.572;14.202;2023-02-15T07:44:48;31.47;;;15.03;;
3971;SDS011;2000;47.572;14.202;2023-02-15T07:47:15;20.97;;;11.13;;
3971;SDS011;2000;47.572;14.202;2023-02-15T07:49:42;24.50;;;10.60;;
3971;SDS011;2000;47.572;14.202;2023-02-15T07:52:08;19.70;;;10.37;;
3971;SDS011;2000;47.572;14.202;2023-02-15T07:54:35;19.03;;;10.83;;
3971;SDS011;2000;47.572;14.202;2023-02-15T07:57:02;29.53;;;9.90;;
3971;SDS011;2000;47.572;14.202;2023-02-15T07:59:29;16.80;;;9.27;;
3971;SDS011;2000;47.572;14.202;2023-02-15T08:01:55;13.77;;;8.27;;
3971;SDS011;2000;47.572;14.202;2023-02-15T08:04:23;18.33;;;9.10;;
3971;SDS011;2000;47.572;14.202;2023-02-15T08:06:53;18.90;;;10.83;;
3971;SDS011;2000;47.572;14.202;2023-02-15T08:09:21;19.73;;;11.20;;
3971;SDS011;2000;47.572;14.202;2023-02-15T08:11:48;24.20;;;11.27;;
3971;SDS011;2000;47.572;14.202;2023-02-15T08:14:19;50.67;;;19.17;;
3971;SDS011;2000;47.572;14.202;2023-02-15T08:16:47;34.43;;;17.03;;
3971;SDS011;2000;47.572;14.202;2023-02-15T08:19:29;20.40;;;8.00;;
3971;SDS011;2000;47.572;14.202;2023-02-15T08:22:00;11.83;;;7.57;;
3971;SDS011;2000;47.572;14.202;2023-02-15T08:24:32;14.87;;;7.37;;
3971;SDS011;2000;47.572;14.202;2023-02-15T08:27:00;28.77;;;8.00;;
3971;SDS011;2000;47.572;14.202;2023-02-15T08:29:32;12.00;;;6.87;;
3971;SDS011;2000;47.572;14.202;2023-02-15T08:32:00;10.80;;;6.50;;
3971;SDS011;2000;47.572;14.202;2023-02-15T08:34:34;17.37;;;8.10;;
3971;SDS011;2000;47.572;14.202;2023-02-15T08:37:02;25.10;;;10.67;;
3971;SDS011;2000;47.572;14.202;2023-02-15T08:39:29;18.57;;;9.23;;
3971;SDS011;2000;47.572;14.202;2023-02-15T08:41:56;10.60;;;6.90;;
3971;SDS011;2000;47.572;14.202;2023-02-15T08:44:23;9.73;;;4.33;;
3971;SDS011;2000;47.572;14.202;2023-02-15T08:46:50;10.23;;;4.87;;
3971;SDS011;2000;47.572;14.202;2023-02-15T08:49:18;18.83;;;5.57;;
3971;SDS011;2000;47.572;14.202;2023-02-15T08:51:47;8.00;;;4.80;;
3971;SDS011;2000;47.572;14.202;2023-02-15T08:54:16;11.03;;;5.83;;
3971;SDS011;2000;47.572;14.202;2023-02-15T08:56:44;8.33;;;5.30;;
3971;SDS011;2000;47.572;14.202;2023-02-15T08:59:12;6.50;;;5.07;;
3971;SDS011;2000;47.572;14.202;2023-02-15T09:01:41;13.47;;;5.67;;
3971;SDS011;2000;47.572;14.202;2023-02-15T09:04:08;9.30;;;5.87;;
3971;SDS011;2000;47.572;14.202;2023-02-15T09:06:37;8.03;;;5.40;;
3971;SDS011;2000;47.572;14.202;2023-02-15T09:09:04;10.73;;;5.50;;
3971;SDS011;2000;47.572;14.202;2023-02-15T09:11:36;11.33;;;5.07;;
3971;SDS011;2000;47.572;14.202;2023-02-15T09:14:06;8.20;;;4.90;;
3971;SDS011;2000;47.572;14.202;2023-02-15T09:16:36;14.97;;;5.00;;
3971;SDS011;2000;47.572;14.202;2023-02-15T09:19:04;11.30;;;4.73;;
3971;SDS011;2000;47.572;14.202;2023-02-15T09:21:32;11.83;;;4.73;;
3971;SDS011;2000;47.572;14.202;2023-02-15T09:24:02;16.00;;;4.93;;
3971;SDS011;2000;47.572;14.202;2023-02-15T09:26:35;17.10;;;4.70;;
3971;SDS011;2000;47.572;14.202;2023-02-15T09:29:03;15.03;;;5.43;;
3971;SDS011;2000;47.572;14.202;2023-02-15T09:31:32;8.70;;;4.50;;
3971;SDS011;2000;47.572;14.202;2023-02-15T09:34:07;11.83;;;5.30;;
3971;SDS011;2000;47.572;14.202;2023-02-15T09:36:35;12.30;;;6.03;;
3971;SDS011;2000;47.572;14.202;2023-02-15T09:39:16;9.20;;;5.80;;
3971;SDS011;2000;47.572;14.202;2023-02-15T09:51:11;12.70;;;6.13;;
3971;SDS011;2000;47.572;14.202;2023-02-15T09:56:29;15.17;;;5.07;;
3971;SDS011;2000;47.572;14.202;2023-02-15T10:07:42;32.27;;;6.10;;
3971;SDS011;2000;47.572;14.202;2023-02-15T10:13:46;17.03;;;5.73;;
3971;SDS011;2000;47.572;14.202;2023-02-15T10:21:58;13.47;;;4.40;;
3971;SDS011;2000;47.572;14.202;2023-02-15T10:27:45;10.47;;;3.63;;
3971;SDS011;2000;47.572;14.202;2023-02-15T10:30:37;8.93;;;5.10;;
3971;SDS011;2000;47.572;14.202;2023-02-15T10:33:10;7.27;;;4.57;;
3971;SDS011;2000;47.572;14.202;2023-02-15T10:35:55;4.07;;;3.53;;
3971;SDS011;2000;47.572;14.202;2023-02-15T11:07:43;8.57;;;3.67;;
3971;SDS011;2000;47.572;14.202;2023-02-15T11:13:02;20.10;;;4.17;;
3971;SDS011;2000;47.572;14.202;2023-02-15T11:16:16;10.07;;;4.23;;
3971;SDS011;2000;47.572;14.202;2023-02-15T11:18:38;12.50;;;4.40;;
3971;SDS011;2000;47.572;14.202;2023-02-15T11:21:40;8.63;;;4.17;;
3971;SDS011;2000;47.572;14.202;2023-02-15T11:24:13;9.90;;;5.10;;
3971;SDS011;2000;47.572;14.202;2023-02-15T11:26:46;7.77;;;4.13;;
3971;SDS011;2000;47.572;14.202;2023-02-15T11:29:25;23.97;;;3.50;;
3971;SDS011;2000;47.572;14.202;2023-02-15T11:40:21;15.93;;;4.57;;
3971;SDS011;2000;47.572;14.202;2023-02-15T11:42:49;14.57;;;3.80;;
3971;SDS011;2000;47.572;14.202;2023-02-15T11:45:20;11.60;;;4.60;;
3971;SDS011;2000;47.572;14.202;2023-02-15T11:47:48;11.63;;;4.23;;
3971;SDS011;2000;47.572;14.202;2023-02-15T11:50:16;13.90;;;4.10;;
3971;SDS011;2000;47.572;14.202;2023-02-15T11:52:49;6.23;;;3.20;;
3971;SDS011;2000;47.572;14.202;2023-02-15T11:55:21;9.83;;;3.07;;
3971;SDS011;2000;47.572;14.202;2023-02-15T11:57:58;11.20;;;3.60;;
3971;SDS011;2000;47.572;14.202;2023-02-15T12:00:37;3.90;;;3.33;;
3971;SDS011;2000;47.572;14.202;2023-02-15T12:03:15;5.10;;;3.47;;
3971;SDS011;2000;47.572;14.202;2023-02-15T12:05:50;5.00;;;2.57;;
3971;SDS011;2000;47.572;14.202;2023-02-15T12:08:20;4.80;;;2.33;;
3971;SDS011;2000;47.572;14.202;2023-02-15T12:10:55;6.53;;;3.20;;
3971;SDS011;2000;47.572;14.202;2023-02-15T12:13:25;5.07;;;2.70;;
3971;SDS011;2000;47.572;14.202;2023-02-15T12:15:55;3.50;;;2.93;;
3971;SDS011;2000;47.572;14.202;2023-02-15T12:21:05;6.60;;;3.10;;
3971;SDS011;2000;47.572;14.202;2023-02-15T12:23:34;5.80;;;3.20;;
3971;SDS011;2000;47.572;14.202;2023-02-15T12:26:30;3.00;;;1.90;;
3971;SDS011;2000;47.572;14.202;2023-02-15T12:28:59;3.73;;;2.20;;
3971;SDS011;2000;47.572;14.202;2023-02-15T12:31:32;8.73;;;2.40;;
3971;SDS011;2000;47.572;14.202;2023-02-15T12:34:03;3.30;;;2.00;;
3971;SDS011;2000;47.572;14.202;2023-02-15T12:36:54;3.63;;;2.20;;
3971;SDS011;2000;47.572;14.202;2023-02-15T12:39:28;4.67;;;2.30;;
3971;SDS011;2000;47.572;14.202;2023-02-15T12:42:03;5.43;;;2.80;;
3971;SDS011;2000;47.572;14.202;2023-02-15T12:44:35;9.97;;;2.60;;
3971;SDS011;2000;47.572;14.202;2023-02-15T12:49:42;5.67;;;2.60;;
3971;SDS011;2000;47.572;14.202;2023-02-15T12:54:49;3.63;;;2.40;;
3971;SDS011;2000;47.572;14.202;2023-02-15T12:59:51;3.20;;;2.53;;
3971;SDS011;2000;47.572;14.202;2023-02-15T13:02:23;5.20;;;2.97;;
3971;SDS011;2000;47.572;14.202;2023-02-15T13:04:55;8.40;;;2.17;;
3971;SDS011;2000;47.572;14.202;2023-02-15T13:07:24;2.30;;;2.10;;
3971;SDS011;2000;47.572;14.202;2023-02-15T13:09:51;2.87;;;2.17;;
3971;SDS011;2000;47.572;14.202;2023-02-15T13:12:23;5.53;;;2.97;;
3971;SDS011;2000;47.572;14.202;2023-02-15T13:14:53;2.30;;;2.10;;
3971;SDS011;2000;47.572;14.202;2023-02-15T13:17:28;3.90;;;2.13;;
3971;SDS011;2000;47.572;14.202;2023-02-15T13:20:04;4.07;;;2.80;;
3971;SDS011;2000;47.572;14.202;2023-02-15T13:22:37;4.70;;;2.47;;
3971;SDS011;2000;47.572;14.202;2023-02-15T13:25:13;5.60;;;1.97;;
3971;SDS011;2000;47.572;14.202;2023-02-15T13:27:44;9.23;;;2.60;;
3971;SDS011;2000;47.572;14.202;2023-02-15T13:30:16;3.90;;;2.47;;
3971;SDS011;2000;47.572;14.202;2023-02-15T13:32:51;3.40;;;2.90;;
3971;SDS011;2000;47.572;14.202;2023-02-15T13:35:22;4.07;;;3.20;;
3971;SDS011;2000;47.572;14.202;2023-02-15T13:40:25;4.90;;;2.67;;
3971;SDS011;2000;47.572;14.202;2023-02-15T13:51:49;2.90;;;2.60;;
3971;SDS011;2000;47.572;14.202;2023-02-15T14:00:11;3.63;;;3.10;;
3971;SDS011;2000;47.572;14.202;2023-02-15T14:05:57;6.47;;;2.33;;
3971;SDS011;2000;47.572;14.202;2023-02-15T14:17:14;4.90;;;2.80;;
3971;SDS011;2000;47.572;14.202;2023-02-15T14:20:07;13.07;;;3.13;;
3971;SDS011;2000;47.572;14.202;2023-02-15T14:22:50;4.53;;;2.27;;
3971;SDS011;2000;47.572;14.202;2023-02-15T14:25:25;2.77;;;2.50;;
3971;SDS011;2000;47.572;14.202;2023-02-15T14:28:02;17.77;;;2.40;;
3971;SDS011;2000;47.572;14.202;2023-02-15T14:30:33;7.97;;;3.77;;
3971;SDS011;2000;47.572;14.202;2023-02-15T14:36:01;3.00;;;2.30;;
3971;SDS011;2000;47.572;14.202;2023-02-15T14:46:46;3.27;;;2.97;;
3971;SDS011;2000;47.572;14.202;2023-02-15T14:49:30;7.20;;;2.60;;
3971;SDS011;2000;47.572;14.202;2023-02-15T14:52:06;3.73;;;2.60;;
3971;SDS011;2000;47.572;14.202;2023-02-15T15:07:48;27.73;;;8.83;;
3971;SDS011;2000;47.572;14.202;2023-02-15T15:12:44;4.47;;;2.63;;
3971;SDS011;2000;47.572;14.202;2023-02-15T15:15:55;8.43;;;2.37;;
3971;SDS011;2000;47.572;14.202;2023-02-15T15:18:42;4.00;;;2.27;;
3971;SDS011;2000;47.572;14.202;2023-02-15T15:21:51;3.80;;;2.07;;
3971;SDS011;2000;47.572;14.202;2023-02-15T15:49:46;4.83;;;2.00;;
3971;SDS011;2000;47.572;14.202;2023-02-15T15:52:17;9.43;;;2.47;;
3971;SDS011;2000;47.572;14.202;2023-02-15T15:54:46;9.57;;;2.43;;
3971;SDS011;2000;47.572;14.202;2023-02-15T16:00:02;4.73;;;1.60;;
3971;SDS011;2000;47.572;14.202;2023-02-15T16:02:29;3.93;;;1.60;;
3971;SDS011;2000;47.572;14.202;2023-02-15T16:05:05;3.70;;;1.70;;
3971;SDS011;2000;47.572;14.202;2023-02-15T16:07:33;3.43;;;2.27;;
3971;SDS011;2000;47.572;14.202;2023-02-15T16:10:02;9.13;;;1.87;;
3971;SDS011;2000;47.572;14.202;2023-02-15T16:12:33;2.03;;;1.60;;
3971;SDS011;2000;47.572;14.202;2023-02-15T16:15:02;2.93;;;1.50;;
3971;SDS011;2000;47.572;14.202;2023-02-15T16:17:31;2.97;;;1.40;;
3971;SDS011;2000;47.572;14.202;2023-02-15T16:20:02;10.20;;;2.00;;
3971;SDS011;2000;47.572;14.202;2023-02-15T16:22:32;3.10;;;1.53;;
3971;SDS011;2000;47.572;14.202;2023-02-15T16:25:03;3.20;;;1.63;;
3971;SDS011;2000;47.572;14.202;2023-02-15T16:27:47;7.50;;;1.60;;
3971;SDS011;2000;47.572;14.202;2023-02-15T16:35:52;3.03;;;1.90;;
3971;SDS011;2000;47.572;14.202;2023-02-15T16:41:09;1.07;;;0.90;;
3971;SDS011;2000;47.572;14.202;2023-02-15T16:43:37;1.40;;;1.30;;
3971;SDS011;2000;47.572;14.202;2023-02-15T16:46:05;2.50;;;1.80;;
3971;SDS011;2000;47.572;14.202;2023-02-15T16:48:37;4.27;;;1.20;;
3971;SDS011;2000;47.572;14.202;2023-02-15T16:51:06;5.00;;;1.70;;
3971;SDS011;2000;47.572;14.202;2023-02-15T16:53:33;5.30;;;2.07;;
3971;SDS011;2000;47.572;14.202;2023-02-15T16:56:01;2.70;;;2.50;;
3971;SDS011;2000;47.572;14.202;2023-02-15T16:58:31;5.13;;;2.23;;
3971;SDS011;2000;47.572;14.202;2023-02-15T17:01:03;2.10;;;1.83;;
3971;SDS011;2000;47.572;14.202;2023-02-15T17:03:33;3.00;;;2.80;;
3971;SDS011;2000;47.572;14.202;2023-02-15T17:06:01;2.17;;;2.00;;
3971;SDS011;2000;47.572;14.202;2023-02-15T17:08:33;2.90;;;1.60;;
3971;SDS011;2000;47.572;14.202;2023-02-15T17:11:14;8.10;;;2.30;;
3971;SDS011;2000;47.572;14.202;2023-02-15T17:16:31;16.50;;;10.13;;
3971;SDS011;2000;47.572;14.202;2023-02-15T17:19:03;8.20;;;3.77;;
3971;SDS011;2000;47.572;14.202;2023-02-15T17:21:37;11.27;;;5.57;;
3971;SDS011;2000;47.572;14.202;2023-02-15T17:24:13;10.97;;;4.90;;
3971;SDS011;2000;47.572;14.202;2023-02-15T17:26:42;8.97;;;3.50;;
3971;SDS011;2000;47.572;14.202;2023-02-15T17:29:11;5.00;;;2.57;;
3971;SDS011;2000;47.572;14.202;2023-02-15T17:31:47;3.60;;;2.07;;
3971;SDS011;2000;47.572;14.202;2023-02-15T17:39:58;3.53;;;2.27;;
3971;SDS011;2000;47.572;14.202;2023-02-15T17:42:26;3.23;;;2.37;;
3971;SDS011;2000;47.572;14.202;2023-02-15T17:44:53;11.43;;;2.03;;
3971;SDS011;2000;47.572;14.202;2023-02-15T17:47:21;4.00;;;2.70;;
3971;SDS011;2000;47.572;14.202;2023-02-15T17:49:50;12.07;;;3.27;;
3971;SDS011;2000;47.572;14.202;2023-02-15T17:52:17;11.83;;;2.87;;
3971;SDS011;2000;47.572;14.202;2023-02-15T17:54:44;4.63;;;3.13;;
3971;SDS011;2000;47.572;14.202;2023-02-15T17:57:30;5.37;;;2.93;;
3971;SDS011;2000;47.572;14.202;2023-02-15T17:59:57;9.83;;;3.23;;
3971;SDS011;2000;47.572;14.202;2023-02-15T18:02:42;4.00;;;2.97;;
3971;SDS011;2000;47.572;14.202;2023-02-15T18:05:27;6.70;;;3.40;;
3971;SDS011;2000;47.572;14.202;2023-02-15T18:08:13;3.43;;;2.53;;
3971;SDS011;2000;47.572;14.202;2023-02-15T18:11:00;4.43;;;2.30;;
3971;SDS011;2000;47.572;14.202;2023-02-15T18:13:45;4.40;;;2.90;;
3971;SDS011;2000;47.572;14.202;2023-02-15T18:16:16;6.27;;;1.80;;
3971;SDS011;2000;47.572;14.202;2023-02-15T18:18:46;5.83;;;2.80;;
3971;SDS011;2000;47.572;14.202;2023-02-15T18:21:13;9.43;;;4.00;;
3971;SDS011;2000;47.572;14.202;2023-02-15T18:23:40;11.40;;;4.00;;
3971;SDS011;2000;47.572;14.202;2023-02-15T18:26:09;10.40;;;4.10;;
3971;SDS011;2000;47.572;14.202;2023-02-15T18:28:41;4.33;;;3.27;;
3971;SDS011;2000;47.572;14.202;2023-02-15T18:31:07;10.93;;;4.47;;
3971;SDS011;2000;47.572;14.202;2023-02-15T18:33:37;10.50;;;4.10;;
3971;SDS011;2000;47.572;14.202;2023-02-15T18:36:05;5.60;;;3.30;;
3971;SDS011;2000;47.572;14.202;2023-02-15T18:38:33;4.17;;;3.13;;
3971;SDS011;2000;47.572;14.202;2023-02-15T18:41:01;2.00;;;1.90;;
3971;SDS011;2000;47.572;14.202;2023-02-15T18:43:29;4.70;;;2.70;;
3971;SDS011;2000;47.572;14.202;2023-02-15T18:45:56;8.97;;;2.77;;
3971;SDS011;2000;47.572;14.202;2023-02-15T18:48:22;6.00;;;2.33;;
3971;SDS011;2000;47.572;14.202;2023-02-15T18:50:49;4.47;;;2.73;;
3971;SDS011;2000;47.572;14.202;2023-02-15T18:53:18;3.37;;;2.50;;
3971;SDS011;2000;47.572;14.202;2023-02-15T18:55:46;2.30;;;1.80;;
3971;SDS011;2000;47.572;14.202;2023-02-15T18:58:19;5.30;;;2.47;;